Time;durP1;ratioP1;P1;durP2;ratioP2;P2;SDS_P1;SDS_P2;PMS_P1;PMS_P2;Temp;Humidity;BMP_temperature;BMP_pressure;BME280_temperature;BME280_humidity;BME280_pressure;Samples;Min_cycle;Max_cycle;Signal;HPM_P1;HPM_P2
2022/12/26 00:01:31;;;;;;;36.80;21.23;;;;;;;9.80;69.00;101801.00;5040157;28;20037;-75
2022/12/26 00:03:57;;;;;;;39.97;20.48;;;;;;;9.82;68.88;101799.06;5031291;28;20033;-75
2022/12/26 00:06:26;;;;;;;41.03;21.98;;;;;;;9.78;68.84;101796.69;5042724;28;20528;-75
2022/12/26 00:08:51;;;;;;;40.85;23.00;;;;;;;9.70;68.84;101807.88;5047895;28;20115;-75
2022/12/26 00:11:17;;;;;;;47.25;25.20;;;;;;;9.74;68.74;101801.34;5029552;28;20168;-76
2022/12/26 00:13:43;;;;;;;40.53;23.67;;;;;;;9.75;68.42;101807.59;5050075;28;20033;-76
2022/12/26 00:16:17;;;;;;;45.78;25.60;;;;;;;9.76;68.81;101809.31;5052538;28;20013;-74
2022/12/26 00:18:43;;;;;;;48.53;25.98;;;;;;;9.75;68.72;101805.75;5036052;28;20064;-74
2022/12/26 00:21:10;;;;;;;47.40;25.40;;;;;;;9.73;68.78;101810.38;5042459;28;20083;-74
2022/12/26 00:23:37;;;;;;;52.08;27.35;;;;;;;9.79;68.59;101815.38;5055320;28;20028;-74
2022/12/26 00:26:11;;;;;;;44.05;26.40;;;;;;;9.78;68.72;101816.31;5054504;28;20639;-74
2022/12/26 00:28:37;;;;;;;46.63;26.15;;;;;;;9.77;68.64;101824.50;5052569;28;20567;-74
2022/12/26 00:31:17;;;;;;;46.53;27.60;;;;;;;9.70;68.60;101829.34;5050275;28;20040;-74
2022/12/26 00:33:43;;;;;;;47.35;25.92;;;;;;;9.70;68.67;101825.78;5052293;28;20029;-74
2022/12/26 00:36:29;;;;;;;44.65;27.15;;;;;;;9.64;68.60;101821.66;5052511;28;20036;-75
2022/12/26 00:38:57;;;;;;;49.33;27.77;;;;;;;9.53;68.58;101826.78;5052127;28;20078;-75
2022/12/26 00:41:22;;;;;;;56.10;29.55;;;;;;;9.32;68.90;101793.13;5040682;28;20531;-75
2022/12/26 00:43:48;;;;;;;47.63;28.60;;;;;;;9.51;69.19;101830.53;5031934;28;20029;-73
2022/12/26 00:46:15;;;;;;;47.70;29.15;;;;;;;9.40;69.14;101828.44;5031798;28;20087;-73
2022/12/26 00:48:41;;;;;;;49.70;30.20;;;;;;;9.45;69.41;101839.78;5032061;28;20087;-76
2022/12/26 00:51:06;;;;;;;51.13;28.67;;;;;;;9.39;69.42;101836.59;5041470;28;20037;-75
2022/12/26 00:53:32;;;;;;;59.95;32.05;;;;;;;9.12;69.75;101796.94;5051856;28;20025;-75
2022/12/26 00:55:58;;;;;;;53.50;31.75;;;;;;;9.12;70.04;101801.44;5051294;28;20219;-75
2022/12/26 00:58:24;;;;;;;50.92;28.25;;;;;;;9.27;70.32;101832.78;5052317;28;20531;-75
2022/12/26 01:00:50;;;;;;;51.67;29.13;;;;;;;9.25;70.76;101835.56;5050862;28;20456;-74
2022/12/26 01:03:16;;;;;;;49.30;28.85;;;;;;;9.23;71.04;101834.75;5051831;28;20056;-74
2022/12/26 01:05:44;;;;;;;65.55;33.63;;;;;;;8.92;71.12;101797.22;5048922;28;20154;-74
2022/12/26 01:08:09;;;;;;;57.50;31.10;;;;;;;9.13;71.45;101830.03;5051476;28;20064;-74
2022/12/26 01:10:35;;;;;;;58.65;31.80;;;;;;;9.17;71.65;101831.59;5047331;28;20056;-75
2022/12/26 01:13:00;;;;;;;72.30;32.95;;;;;;;9.14;71.64;101834.44;5032057;28;20697;-76
2022/12/26 07:44:38;;;;;;;46.80;23.35;;;;;;;9.16;64.19;101997.13;4938277;28;20058;-81
2022/12/26 07:47:03;;;;;;;45.95;23.30;;;;;;;9.23;63.80;101986.94;4944981;28;20147;-82
2022/12/26 07:49:29;;;;;;;44.25;25.02;;;;;;;9.30;63.50;101991.00;4952544;28;20113;-81
2022/12/26 07:51:54;;;;;;;59.50;24.10;;;;;;;9.43;63.70;101994.75;4952999;28;20023;-79
2022/12/26 07:54:20;;;;;;;53.75;26.17;;;;;;;9.56;63.49;101997.66;4953219;29;20387;-84
2022/12/26 07:56:45;;;;;;;62.25;27.42;;;;;;;9.65;63.15;102000.69;4952384;28;20552;-83
2022/12/26 07:59:16;;;;;;;80.82;36.63;;;;;;;9.74;63.07;101997.50;4953212;28;20553;-83
2022/12/26 08:01:42;;;;;;;93.47;44.03;;;;;;;9.83;63.18;101994.28;4950495;29;20489;-83
2022/12/26 08:04:09;;;;;;;105.00;52.15;;;;;;;9.78;62.88;102001.72;4953635;29;20035;-80
2022/12/26 08:06:35;;;;;;;133.38;60.83;;;;;;;9.66;63.62;102002.41;4953152;28;20082;-83
2022/12/26 08:09:00;;;;;;;160.20;71.18;;;;;;;9.63;64.16;102007.94;4954117;29;20482;-80
2022/12/26 08:11:27;;;;;;;165.70;73.90;;;;;;;9.53;64.28;101987.94;4959308;29;20035;-84
2022/12/26 08:13:53;;;;;;;169.82;78.63;;;;;;;9.69;64.75;101996.84;4953654;29;20090;-85
2022/12/26 08:16:19;;;;;;;208.70;90.90;;;;;;;9.62;65.17;101968.63;4953631;28;20502;-86
2022/12/26 08:18:44;;;;;;;211.60;97.90;;;;;;;9.76;65.14;101976.75;4953239;28;20111;-87
2022/12/26 08:21:11;;;;;;;201.15;99.60;;;;;;;9.88;65.23;101985.94;4954415;29;20372;-81
2022/12/26 08:23:36;;;;;;;210.80;95.65;;;;;;;9.90;65.87;102000.19;4953743;28;20474;-83
2022/12/26 08:26:07;;;;;;;196.70;95.18;;;;;;;9.99;65.62;102004.16;4953159;29;20074;-83
2022/12/26 08:28:33;;;;;;;211.10;100.55;;;;;;;9.99;65.30;101983.53;4953121;28;20035;-84
2022/12/26 08:30:59;;;;;;;201.50;98.28;;;;;;;10.16;65.25;101985.25;4960144;29;20046;-87
2022/12/26 08:33:25;;;;;;;204.55;95.38;;;;;;;10.30;64.68;102007.69;4972273;28;20035;-87
2022/12/26 08:35:50;;;;;;;217.57;99.65;;;;;;;10.22;65.02;102001.03;4961277;29;20402;-85
2022/12/26 08:38:16;;;;;;;184.43;96.50;;;;;;;10.40;65.17;101983.81;4956051;28;20046;-81
2022/12/26 08:40:41;;;;;;;171.93;92.05;;;;;;;10.51;64.37;101977.81;4956019;29;20517;-83
2022/12/26 08:43:07;;;;;;;129.38;68.93;;;;;;;10.46;63.35;101966.47;4955884;29;20031;-86
2022/12/26 08:45:32;;;;;;;198.07;77.43;;;;;;;10.51;62.89;101959.00;4955777;28;20042;-83
2022/12/26 08:47:58;;;;;;;137.13;72.10;;;;;;;10.67;63.22;101960.66;4957238;29;20102;-90
2022/12/26 08:50:24;;;;;;;128.05;65.07;;;;;;;10.88;62.68;101964.75;4957012;28;20113;-87
2022/12/26 08:52:50;;;;;;;118.63;60.88;;;;;;;11.03;62.10;101964.75;4956463;28;20046;-90
2022/12/26 08:55:15;;;;;;;110.68;60.13;;;;;;;11.09;61.77;101948.22;4956430;28;20031;-85
2022/12/26 08:57:41;;;;;;;106.57;60.75;;;;;;;11.23;61.16;101962.53;4956285;29;21784;-85
2022/12/26 09:00:07;;;;;;;109.22;57.60;;;;;;;11.45;60.59;101970.13;4956759;28;20462;-89
2022/12/26 09:02:33;;;;;;;98.63;51.53;;;;;;;11.55;59.99;101967.72;4956097;29;20031;-86
2022/12/26 09:04:58;;;;;;;91.55;51.70;;;;;;;11.66;58.71;101957.09;4955867;29;20501;-86
2022/12/26 09:07:24;;;;;;;89.47;45.15;;;;;;;11.66;58.00;101933.72;4955876;29;20027;-83
2022/12/26 09:09:49;;;;;;;89.22;45.03;;;;;;;11.80;56.58;101949.03;4956471;28;20035;-84
2022/12/26 09:12:15;;;;;;;88.97;45.17;;;;;;;11.94;56.53;101947.16;4954770;28;20031;-80
2022/12/26 09:14:40;;;;;;;77.32;39.55;;;;;;;11.99;55.09;101939.63;4943327;29;20036;-79
2022/12/26 09:17:06;;;;;;;61.20;34.22;;;;;;;12.06;55.45;101923.03;4936184;29;20036;-83
2022/12/26 09:19:31;;;;;;;36.33;18.63;;;;;;;12.15;54.88;101917.00;4936910;29;20028;-85
2022/12/26 09:24:42;;;;;;;35.70;19.70;;;;;;;12.42;53.30;101909.75;4938073;29;20123;-84
2022/12/26 09:27:08;;;;;;;45.92;19.30;;;;;;;12.53;52.79;101908.06;4923403;29;20094;-86
2022/12/26 09:29:34;;;;;;;39.85;18.45;;;;;;;12.71;52.04;101905.91;4957033;28;20027;-80
2022/12/26 09:31:59;;;;;;;38.80;18.50;;;;;;;12.87;52.23;101901.13;4958774;28;20047;-83
2022/12/26 09:34:24;;;;;;;28.42;15.68;;;;;;;12.98;50.78;101898.56;4964383;28;20138;-87
2022/12/26 09:36:50;;;;;;;38.53;15.68;;;;;;;13.15;50.58;101899.22;4959714;29;20075;-80
2022/12/26 09:39:15;;;;;;;30.08;15.27;;;;;;;13.21;50.55;101898.78;4954243;28;20035;-79
2022/12/26 09:42:17;;;;;;;33.42;15.98;;;;;;;13.19;49.51;101895.31;4954416;28;20054;-80
2022/12/26 09:44:54;;;;;;;24.70;12.93;;;;;;;13.19;49.80;101884.50;4957155;28;20035;-91
2022/12/26 09:47:31;;;;;;;30.58;13.90;;;;;;;13.32;49.30;101896.16;4975873;28;20406;-83
2022/12/26 09:50:04;;;;;;;27.58;12.68;;;;;;;13.28;49.02;101873.03;4955061;29;20042;-81
2022/12/26 09:52:36;;;;;;;44.67;14.38;;;;;;;13.41;49.05;101895.47;4959772;28;20052;-83
2022/12/26 09:55:23;;;;;;;30.47;13.40;;;;;;;13.42;49.37;101887.25;4975098;28;20038;-85
2022/12/26 09:57:51;;;;;;;18.80;10.90;;;;;;;13.46;48.55;101894.16;4976203;28;20038;-87
2022/12/26 10:00:28;;;;;;;19.27;11.40;;;;;;;13.47;48.51;101885.09;4975312;28;20043;-84
2022/12/26 10:02:57;;;;;;;19.92;12.05;;;;;;;13.56;48.77;101883.53;4975911;28;20422;-94
2022/12/26 10:05:27;;;;;;;30.77;14.18;;;;;;;13.58;47.93;101868.94;4983176;28;20026;-87
2022/12/26 10:08:12;;;;;;;22.35;11.48;;;;;;;13.54;48.09;101880.09;4995110;28;20421;-81
2022/12/26 10:10:50;;;;;;;27.35;14.25;;;;;;;13.57;48.45;101880.75;4994736;28;20099;-79
2022/12/26 10:13:25;;;;;;;27.00;14.13;;;;;;;13.57;48.89;101877.19;4988627;28;20026;-79
2022/12/26 10:16:07;;;;;;;33.70;13.35;;;;;;;13.48;48.68;101888.66;4990952;28;20026;-82
2022/12/26 10:18:48;;;;;;;;;;;;;;;13.57;48.65;101874.47;4975339;28;20035;-87
2022/12/26 10:21:31;;;;;;;13.77;8.93;;;;;;;13.41;49.08;101879.28;4960495;28;19957;-87
2022/12/26 10:24:07;;;;;;;15.60;8.60;;;;;;;13.35;48.90;101874.31;4958679;28;20030;-89
2022/12/26 10:26:40;;;;;;;19.48;9.30;;;;;;;13.14;49.24;101849.72;4975143;28;20039;-87
2022/12/26 10:29:14;;;;;;;17.33;7.40;;;;;;;13.30;48.93;101865.69;4958456;28;20114;-89
2022/12/26 10:32:03;;;;;;;23.13;8.77;;;;;;;13.19;48.61;101858.34;4967096;28;20050;-89
2022/12/26 10:34:31;;;;;;;22.17;7.57;;;;;;;13.11;49.21;101857.19;4972806;28;20063;-84
2022/12/26 10:37:02;;;;;;;9.60;6.63;;;;;;;13.12;48.92;101850.81;4990329;28;20035;-87
2022/12/26 10:39:38;;;;;;;15.57;5.28;;;;;;;13.06;48.55;101852.06;4969963;28;20355;-86
2022/12/26 10:42:27;;;;;;;12.95;5.35;;;;;;;12.92;48.49;101855.78;4982859;28;20061;-89
2022/12/26 10:44:52;;;;;;;13.85;7.75;;;;;;;12.96;49.27;101851.91;4939691;29;20055;-91
2022/12/26 10:47:32;;;;;;;11.98;7.40;;;;;;;13.03;49.63;101853.16;4935309;29;20206;-87
2022/12/26 10:49:58;;;;;;;25.27;9.18;;;;;;;13.16;49.62;101853.19;4936646;29;20044;-91
2022/12/26 10:52:33;;;;;;;45.95;9.95;;;;;;;13.28;49.58;101844.19;4935954;29;20031;-91
2022/12/26 10:55:00;;;;;;;23.80;10.35;;;;;;;13.21;49.93;101840.19;4934761;29;20062;-91
2022/12/26 10:57:31;;;;;;;20.50;9.43;;;;;;;13.22;50.40;101847.31;4934862;29;20027;-91
2022/12/26 10:59:57;;;;;;;21.75;10.00;;;;;;;13.27;50.18;101855.09;4895559;29;20097;-88
2022/12/26 11:02:25;;;;;;;20.85;10.68;;;;;;;13.29;50.11;101853.16;4891247;29;20134;-93
2022/12/26 11:04:58;;;;;;;16.25;9.27;;;;;;;13.33;50.80;101851.97;4902246;29;20140;-89
2022/12/26 11:07:26;;;;;;;13.57;6.35;;;;;;;13.06;50.62;101842.13;4898805;29;20112;-91
2022/12/26 11:09:57;;;;;;;17.98;7.07;;;;;;;13.21;50.62;101828.53;4898998;29;20048;-88
2022/12/26 11:12:38;;;;;;;12.75;5.22;;;;;;;13.42;50.13;101840.47;4896676;29;20144;-86
2022/12/26 11:15:17;;;;;;;17.83;5.93;;;;;;;13.60;49.83;101829.16;4895651;29;20040;-90
2022/12/26 11:17:44;;;;;;;20.15;5.88;;;;;;;13.73;48.38;101826.34;4898764;29;20500;-95
2022/12/26 11:20:15;;;;;;;21.42;5.10;;;;;;;13.66;48.29;101818.84;4897995;29;20072;-94
2022/12/26 11:22:45;;;;;;;11.00;4.18;;;;;;;13.78;47.36;101810.66;4928906;29;20507;-90
2022/12/26 11:25:29;;;;;;;9.80;3.55;;;;;;;13.69;47.43;101808.66;4915744;29;20067;-86
2022/12/26 11:27:56;;;;;;;25.55;4.60;;;;;;;13.66;46.94;101808.91;4930714;29;20039;-85
2022/12/26 11:30:32;;;;;;;9.13;4.32;;;;;;;13.64;47.30;101800.03;4942397;28;20051;-81
2022/12/26 11:33:54;;;;;;;11.18;4.00;;;;;;;13.58;48.75;101800.47;4975042;28;20105;-90
2022/12/26 11:36:22;;;;;;;10.40;4.15;;;;;;;13.46;49.50;101802.28;4930361;29;20038;-91
2022/12/26 11:38:53;;;;;;;40.63;14.20;;;;;;;13.43;49.31;101796.22;4938344;29;20028;-91
2022/12/26 11:41:40;;;;;;;11.50;5.60;;;;;;;13.46;50.09;101793.28;4932460;29;20035;-91
2022/12/26 11:44:28;;;;;;;8.38;3.95;;;;;;;13.34;51.11;101794.22;4919573;29;20032;-92
2022/12/26 11:47:16;;;;;;;28.45;6.38;;;;;;;13.35;51.73;101788.72;4924242;29;20099;-93
2022/12/26 11:49:56;;;;;;;9.43;4.82;;;;;;;12.98;51.94;101795.94;4925385;29;20147;-91
2022/12/26 11:52:44;;;;;;;17.05;4.93;;;;;;;12.90;52.42;101782.09;4926326;29;20065;-92
2022/12/26 11:55:28;;;;;;;20.42;4.68;;;;;;;12.84;53.27;101795.22;4924412;29;20051;-92
2022/12/26 11:58:05;;;;;;;15.57;5.28;;;;;;;12.69;54.37;101780.94;4922580;29;20156;-93
2022/12/26 12:00:42;;;;;;;22.70;6.07;;;;;;;12.55;54.29;101787.34;4918643;29;20130;-92
2022/12/26 12:03:21;;;;;;;7.70;4.22;;;;;;;12.66;53.34;101797.38;4918413;29;20427;-90
2022/12/26 12:06:00;;;;;;;7.20;4.70;;;;;;;12.90;52.71;101786.66;4917596;29;20036;-92
2022/12/26 12:08:35;;;;;;;30.35;22.42;;;;;;;12.90;52.44;101798.31;4918473;29;20208;-92
2022/12/26 12:11:25;;;;;;;5.68;4.32;;;;;;;12.74;51.77;101776.09;4922185;29;20058;-93
2022/12/26 12:14:28;;;;;;;11.07;3.78;;;;;;;12.90;50.89;101797.47;4921554;29;20507;-93
2022/12/26 12:17:29;;;;;;;17.08;4.05;;;;;;;12.99;50.23;101791.41;4921518;29;20056;-92
2022/12/26 12:20:18;;;;;;;18.70;4.05;;;;;;;12.79;50.29;101790.13;4921731;29;20042;-91
2022/12/26 12:22:55;;;;;;;14.93;6.15;;;;;;;12.83;50.40;101790.78;4920706;29;20036;-90
2022/12/26 12:25:21;;;;;;;7.18;3.78;;;;;;;12.86;51.03;101783.31;4921490;29;20103;-92
2022/12/26 12:27:55;;;;;;;21.45;6.05;;;;;;;12.83;51.56;101793.47;4921124;29;20072;-90
2022/12/26 12:30:21;;;;;;;16.23;3.72;;;;;;;12.75;51.98;101791.31;4921516;29;20080;-91
2022/12/26 12:32:49;;;;;;;4.20;2.95;;;;;;;12.64;53.30;101790.34;4922646;29;20032;-91
2022/12/26 12:35:23;;;;;;;8.75;3.35;;;;;;;12.53;54.04;101794.72;4924954;29;20105;-92
2022/12/26 12:38:27;;;;;;;24.15;4.80;;;;;;;12.39;55.36;101797.50;4930225;29;20020;-90
2022/12/26 12:41:13;;;;;;;7.10;4.35;;;;;;;12.56;55.13;101790.91;4960166;28;20052;-89
2022/12/26 12:44:02;;;;;;;10.23;4.75;;;;;;;12.53;55.05;101794.72;4953816;28;20089;-92
2022/12/26 12:46:30;;;;;;;25.67;6.43;;;;;;;12.38;55.27;101773.34;4928831;29;20052;-91
2022/12/26 12:49:20;;;;;;;13.15;5.38;;;;;;;12.50;55.73;101799.44;4952121;29;20043;-91
2022/12/26 12:52:02;;;;;;;13.93;5.30;;;;;;;12.50;56.17;101808.41;4941207;29;20044;-93
2022/12/26 12:54:41;;;;;;;13.85;6.03;;;;;;;12.50;56.50;101804.84;4925177;29;20074;-93
2022/12/26 12:57:21;;;;;;;9.93;5.78;;;;;;;12.38;56.97;101803.03;4943237;29;20042;-91
2022/12/26 13:00:15;;;;;;;18.80;6.35;;;;;;;12.28;57.35;101796.53;4942846;29;20036;-90
2022/12/26 13:03:03;;;;;;;11.30;6.97;;;;;;;12.28;58.36;101796.53;4844500;29;20541;-93
2022/12/26 13:06:00;;;;;;;17.52;7.07;;;;;;;12.20;58.42;101798.91;4829037;29;20124;-91
2022/12/26 13:09:01;;;;;;;11.75;6.43;;;;;;;12.04;59.65;101796.41;4837121;29;20830;-79
2022/12/26 13:11:35;;;;;;;16.15;7.68;;;;;;;11.96;59.72;101787.97;4803735;29;20059;-90
2022/12/26 13:14:10;;;;;;;16.25;6.68;;;;;;;11.87;60.00;101781.38;4805058;29;20051;-81
2022/12/26 13:16:43;;;;;;;46.17;9.70;;;;;;;11.78;60.51;101762.25;4805807;29;20046;-86
2022/12/26 13:19:16;;;;;;;;;;;;;;;11.93;60.77;101789.03;4823288;29;20034;-83
2022/12/26 13:21:42;;;;;;;21.92;9.35;;;;;;;11.80;61.56;101780.06;4822332;29;19921;-85
2022/12/26 13:24:39;;;;;;;11.15;8.55;;;;;;;11.83;62.21;101792.50;4822675;29;20027;-84
2022/12/26 13:27:22;;;;;;;19.30;10.50;;;;;;;11.84;62.60;101795.06;4752639;30;20095;-88
2022/12/26 13:29:48;;;;;;;14.60;8.75;;;;;;;11.85;63.35;101791.41;4754808;30;20067;-87
2022/12/26 13:32:22;;;;;;;37.08;11.20;;;;;;;11.81;63.30;101787.19;4753599;30;20152;-92
2022/12/26 13:34:50;;;;;;;19.85;9.32;;;;;;;11.87;63.63;101788.59;4756757;30;20056;-94
2022/12/26 13:37:52;;;;;;;20.77;9.82;;;;;;;11.83;64.62;101792.50;4757851;30;20048;-90
2022/12/26 13:40:20;;;;;;;21.05;10.32;;;;;;;11.83;64.99;101793.31;4754406;30;20028;-88
2022/12/26 13:45:59;;;;;;;19.85;11.07;;;;;;;11.77;65.67;101788.34;4768458;29;20118;-86
2022/12/26 13:48:25;;;;;;;26.85;11.32;;;;;;;11.70;66.29;101786.19;4804948;29;20071;-87
2022/12/26 13:51:04;;;;;;;19.20;11.95;;;;;;;11.70;66.79;101791.59;4805343;29;20055;-89
2022/12/26 13:53:36;;;;;;;19.85;11.90;;;;;;;11.66;67.38;101790.88;4804830;29;20460;-87
2022/12/26 13:56:03;;;;;;;41.88;13.55;;;;;;;11.65;67.32;101789.16;4791716;29;20133;-89
2022/12/26 13:58:31;;;;;;;24.88;12.05;;;;;;;11.68;67.78;101788.94;4815157;29;20039;-87
2022/12/26 14:01:24;;;;;;;21.30;11.98;;;;;;;11.73;67.54;101776.06;4804620;29;20035;-86
2022/12/26 14:03:59;;;;;;;21.73;11.75;;;;;;;11.72;67.92;101786.94;4841930;29;20049;-87
2022/12/26 14:06:24;;;;;;;82.63;15.60;;;;;;;11.72;68.54;101789.63;4878650;29;20041;-88
2022/12/26 14:08:55;;;;;;;34.85;15.48;;;;;;;11.75;68.67;101790.28;4888590;29;20159;-90
2022/12/26 14:11:23;;;;;;;41.33;16.35;;;;;;;11.65;68.38;101772.13;4880541;29;20088;-90
2022/12/26 14:14:20;;;;;;;43.17;12.95;;;;;;;11.78;68.88;101783.81;4878282;29;20580;-86
2022/12/26 14:16:52;;;;;;;37.00;13.77;;;;;;;11.74;68.68;101788.56;4921863;28;20049;-84
2022/12/26 14:19:59;;;;;;;29.80;13.50;;;;;;;11.63;69.74;101776.75;4998719;28;20237;-85
2022/12/26 14:22:43;;;;;;;34.22;13.07;;;;;;;11.75;69.90;101779.50;4939773;29;20036;-89
2022/12/26 14:25:31;;;;;;;32.58;12.65;;;;;;;11.67;69.78;101779.16;4939536;29;20086;-90
2022/12/26 14:27:56;;;;;;;28.42;13.63;;;;;;;11.64;70.09;101771.28;4940268;29;20128;-91
2022/12/26 14:30:55;;;;;;;24.13;14.40;;;;;;;11.50;70.43;101755.16;4932553;29;20511;-93
2022/12/26 14:33:38;;;;;;;33.47;16.88;;;;;;;11.69;70.50;101758.34;4916596;29;20131;-88
2022/12/26 14:36:18;;;;;;;33.15;16.10;;;;;;;11.78;70.50;101757.75;4915268;29;20139;-85
2022/12/26 14:39:01;;;;;;;34.80;16.05;;;;;;;11.83;70.08;101754.75;4915818;29;20032;-89
2022/12/26 14:44:33;;;;;;;51.38;19.67;;;;;;;11.86;70.38;101765.31;4895983;29;20062;-83
2022/12/26 14:47:01;;;;;;;30.45;17.27;;;;;;;11.81;70.58;101757.53;4893911;29;20057;-85
2022/12/26 14:49:29;;;;;;;32.22;16.95;;;;;;;11.80;70.90;101757.66;4879590;29;20501;-86
2022/12/26 14:52:23;;;;;;;35.13;16.60;;;;;;;11.83;70.76;101760.13;4877278;29;20048;-83
2022/12/26 14:54:50;;;;;;;41.53;18.00;;;;;;;11.84;70.31;101746.53;4876614;29;20033;-87
2022/12/26 14:57:45;;;;;;;26.67;16.88;;;;;;;11.80;70.90;101752.25;4876845;29;20508;-82
2022/12/26 15:00:32;;;;;;;45.42;18.52;;;;;;;11.80;71.45;101755.78;4839506;29;20049;-87
2022/12/26 15:02:57;;;;;;;38.53;21.50;;;;;;;11.81;70.92;101751.28;4839370;29;20521;-85
2022/12/26 15:05:31;;;;;;;42.88;20.92;;;;;;;11.83;70.63;101746.66;4841690;29;20045;-83
2022/12/26 15:08:28;;;;;;;33.63;20.50;;;;;;;11.83;71.13;101752.06;4842246;29;20081;-83
2022/12/26 15:11:02;;;;;;;53.65;26.30;;;;;;;11.84;71.20;101756.44;4839028;29;20042;-86
2022/12/26 15:13:56;;;;;;;55.95;29.23;;;;;;;11.82;71.49;101742.22;4839529;29;20564;-85
2022/12/26 15:16:27;;;;;;;65.50;29.65;;;;;;;11.88;71.27;101747.19;4892830;29;20037;-81
2022/12/26 15:19:23;;;;;;;40.83;25.13;;;;;;;11.87;71.81;101742.75;4895026;29;20160;-82
2022/12/26 15:22:27;;;;;;;43.95;27.55;;;;;;;11.83;71.76;101742.09;4894274;29;20040;-85
2022/12/26 15:25:37;;;;;;;50.78;29.02;;;;;;;11.82;71.71;101740.41;4894568;29;20547;-83
2022/12/26 15:28:20;;;;;;;46.75;26.58;;;;;;;11.90;71.91;101746.13;4876116;29;20041;-88
2022/12/26 15:30:48;;;;;;;50.67;23.50;;;;;;;11.89;72.17;101749.81;4860020;29;20139;-83
2022/12/26 15:33:28;;;;;;;48.15;24.50;;;;;;;11.83;72.27;101755.59;4875413;29;20041;-81
2022/12/26 15:36:05;;;;;;;40.83;23.70;;;;;;;11.76;72.52;101735.44;4875175;29;20118;-84
2022/12/26 15:39:15;;;;;;;48.35;25.35;;;;;;;11.81;72.56;101743.19;4913089;29;20543;-87
2022/12/26 15:41:40;;;;;;;48.22;28.77;;;;;;;11.80;72.65;101745.00;4838080;29;20038;-83
2022/12/26 15:44:24;;;;;;;54.03;27.88;;;;;;;11.83;72.78;101738.56;4839054;29;20195;-81
2022/12/26 15:47:25;;;;;;;44.67;24.98;;;;;;;11.84;72.55;101738.44;4842414;29;20050;-85
2022/12/26 15:50:24;;;;;;;47.92;22.90;;;;;;;11.79;72.24;101740.63;4824611;29;20068;-86
2022/12/26 15:53:18;;;;;;;41.47;20.85;;;;;;;11.76;72.17;101738.13;4820411;29;20042;-82
2022/12/26 15:56:02;;;;;;;33.35;21.63;;;;;;;11.68;72.49;101737.75;4820187;29;20064;-85
2022/12/26 15:58:46;;;;;;;37.33;20.65;;;;;;;11.66;72.43;101736.13;4820585;29;20046;-83
2022/12/26 16:01:11;;;;;;;61.50;30.05;;;;;;;11.60;72.63;101737.41;4818750;29;20030;-83
2022/12/26 16:03:52;;;;;;;42.88;24.85;;;;;;;11.61;72.75;101755.31;4820180;29;20052;-79
2022/12/26 16:06:46;;;;;;;38.55;22.17;;;;;;;11.59;73.03;101742.91;4836322;29;20123;-82
2022/12/26 16:09:12;;;;;;;46.40;22.00;;;;;;;11.63;72.97;101752.50;4836991;29;20540;-86
2022/12/26 16:11:48;;;;;;;32.97;20.55;;;;;;;11.56;72.84;101752.03;4847808;29;20041;-87
2022/12/26 16:14:44;;;;;;;40.35;19.20;;;;;;;11.55;72.90;101753.03;4898325;29;20036;-87
2022/12/26 16:17:12;;;;;;;31.80;20.30;;;;;;;11.53;73.50;101748.72;4804415;29;20054;-87
2022/12/26 16:19:42;;;;;;;51.53;21.27;;;;;;;11.53;73.18;101752.25;4800974;29;20055;-83
2022/12/26 16:25:00;;;;;;;52.03;23.20;;;;;;;11.55;73.84;101754.84;4853775;29;20189;-82
2022/12/26 16:27:27;;;;;;;47.35;21.45;;;;;;;11.59;73.03;101743.75;4858280;29;20037;-83
2022/12/26 16:29:59;;;;;;;51.03;24.65;;;;;;;11.64;72.90;101746.16;4855702;29;20070;-83
2022/12/26 16:32:35;;;;;;;59.15;24.90;;;;;;;11.72;73.08;101751.91;4855607;29;20045;-84
2022/12/26 16:35:02;;;;;;;51.05;21.92;;;;;;;11.68;72.05;101745.81;4864743;29;20131;-83
2022/12/26 16:37:28;;;;;;;43.20;23.95;;;;;;;11.70;72.51;101749.34;4886201;29;20048;-86
2022/12/26 16:40:24;;;;;;;60.03;28.95;;;;;;;11.70;72.19;101751.16;4874926;29;20045;-88
2022/12/26 16:43:24;;;;;;;50.10;26.00;;;;;;;11.65;72.01;101748.72;4875786;29;20045;-85
2022/12/26 16:45:59;;;;;;;53.60;29.63;;;;;;;11.70;71.85;101743.94;4862432;29;20058;-85
2022/12/26 16:48:27;;;;;;;73.35;31.98;;;;;;;11.68;72.26;101750.38;4872267;29;20099;-87
2022/12/26 16:50:59;;;;;;;76.85;30.95;;;;;;;11.65;72.12;101737.94;4867615;29;20041;-87
2022/12/26 16:53:43;;;;;;;64.28;36.95;;;;;;;11.63;71.02;101741.72;4859225;29;20041;-86
2022/12/26 16:56:23;;;;;;;82.95;34.80;;;;;;;11.63;71.76;101747.97;4875646;29;20504;-82
2022/12/26 16:59:10;;;;;;;60.58;33.47;;;;;;;11.61;71.44;101749.06;4878236;29;20029;-86
2022/12/26 17:01:36;;;;;;;63.70;34.58;;;;;;;11.61;71.21;101749.94;4876673;29;20049;-81
2022/12/26 17:04:05;;;;;;;76.28;38.00;;;;;;;11.65;71.15;101746.03;4876530;29;20088;-82
2022/12/26 17:06:36;;;;;;;53.38;30.25;;;;;;;11.61;71.52;101744.53;4877401;29;20041;-84
2022/12/26 17:09:09;;;;;;;63.08;31.95;;;;;;;11.46;71.16;101727.59;4879882;29;20041;-88
2022/12/26 17:11:44;;;;;;;55.08;29.02;;;;;;;11.56;71.35;101740.44;4878035;29;20044;-86
2022/12/26 17:14:18;;;;;;;49.40;27.40;;;;;;;11.54;71.49;101743.22;4877981;29;20056;-83
2022/12/26 17:16:44;;;;;;;61.55;27.90;;;;;;;11.55;71.65;101728.78;4877825;29;20488;-84
2022/12/26 17:19:20;;;;;;;43.00;23.23;;;;;;;11.61;71.90;101736.44;4877996;29;20033;-81
2022/12/26 17:22:13;;;;;;;44.42;24.92;;;;;;;11.56;72.15;101738.56;4881688;29;20037;-83
2022/12/26 17:24:46;;;;;;;54.58;27.88;;;;;;;11.57;71.86;101731.34;4958527;29;20034;-83
2022/12/26 17:27:18;;;;;;;52.72;26.30;;;;;;;11.47;72.98;101725.72;4958793;29;20113;-84
2022/12/26 17:29:55;;;;;;;39.50;24.23;;;;;;;11.48;73.30;101717.56;4961122;28;20114;-84
2022/12/26 17:32:38;;;;;;;48.53;26.25;;;;;;;11.33;74.04;101706.94;4965100;29;20042;-84
2022/12/26 17:35:13;;;;;;;52.58;23.60;;;;;;;11.43;73.64;101721.53;4954890;28;20040;-84
2022/12/26 17:37:39;;;;;;;45.35;25.27;;;;;;;11.45;74.02;101728.53;4945532;29;20036;-84
2022/12/26 17:40:14;;;;;;;47.13;25.10;;;;;;;11.53;73.50;101725.31;4948829;29;20035;-79
2022/12/26 17:43:02;;;;;;;50.63;28.35;;;;;;;11.48;73.28;101708.59;4943031;29;20042;-84
2022/12/26 17:45:28;;;;;;;43.05;27.20;;;;;;;11.53;73.68;101714.53;4954488;28;20506;-83
2022/12/26 17:47:55;;;;;;;53.90;29.63;;;;;;;11.54;73.79;101715.41;4979795;28;20026;-84
2022/12/26 17:50:23;;;;;;;51.63;24.70;;;;;;;11.59;73.54;101716.81;4983313;28;20042;-84
2022/12/26 17:52:49;;;;;;;40.22;23.95;;;;;;;11.56;73.26;101714.31;4957218;29;20494;-86
2022/12/26 17:55:25;;;;;;;47.50;24.08;;;;;;;11.55;73.83;101701.84;4947475;29;20062;-84
2022/12/26 17:57:51;;;;;;;60.17;27.52;;;;;;;11.50;73.62;101684.28;4949372;28;20045;-83
2022/12/26 18:00:20;;;;;;;47.25;24.60;;;;;;;11.53;73.54;101692.13;4952030;29;20494;-84
2022/12/26 18:02:46;;;;;;;40.50;23.60;;;;;;;11.52;73.27;101691.28;4948478;28;20067;-84
2022/12/26 18:05:12;;;;;;;58.65;31.02;;;;;;;11.55;73.35;101707.22;4952689;29;20043;-83
2022/12/26 18:07:39;;;;;;;47.20;29.63;;;;;;;11.53;73.36;101703.75;4951821;28;20055;-83
2022/12/26 18:10:05;;;;;;;47.85;28.40;;;;;;;11.52;73.33;101696.66;4935830;29;20039;-82
2022/12/26 18:12:31;;;;;;;47.55;29.52;;;;;;;11.53;73.80;101697.53;4952134;29;20077;-83
2022/12/26 18:14:57;;;;;;;50.67;30.15;;;;;;;11.47;73.54;101682.63;4951960;29;20071;-81
2022/12/26 18:17:26;;;;;;;44.78;27.48;;;;;;;11.54;73.88;101694.72;4955465;29;20043;-78
2022/12/26 18:19:52;;;;;;;64.35;29.08;;;;;;;11.52;73.49;101698.50;4893665;29;20167;-78
2022/12/26 18:22:18;;;;;;;56.55;28.20;;;;;;;11.48;73.13;101700.53;4895459;29;20089;-87
2022/12/26 18:24:44;;;;;;;48.58;27.63;;;;;;;11.47;73.09;101701.47;4912096;29;20036;-89
2022/12/26 18:27:39;;;;;;;44.25;27.65;;;;;;;11.47;73.67;101694.25;4910292;29;20037;-89